createdAt,value
2022-11-03T11:43:19.195Z,993.17
2022-11-03T11:44:19.056Z,993.16
2022-11-03T11:45:19.170Z,993.15
2022-11-03T11:46:19.422Z,993.16
2022-11-03T11:47:18.936Z,993.16
2022-11-03T11:48:21.335Z,993.09
2022-11-03T11:49:18.847Z,993.11
2022-11-03T11:58:33.676Z,992.91
2022-11-03T11:59:33.472Z,992.83
2022-11-03T12:02:34.594Z,992.80
2022-11-03T12:03:34.994Z,992.82
2022-11-03T12:04:33.340Z,992.84
2022-11-03T12:08:03.896Z,992.91
2022-11-03T12:09:06.598Z,992.89
2022-11-03T12:10:00.768Z,992.91
2022-11-03T12:11:02.193Z,992.84
2022-11-03T12:19:51.965Z,992.69
2022-11-03T12:21:21.316Z,992.64
2022-11-03T12:22:26.344Z,992.66
2022-11-03T12:23:19.044Z,992.66
2022-11-03T12:24:04.559Z,992.58
2022-11-03T12:24:53.798Z,992.57
2022-11-03T12:25:42.063Z,992.55
2022-11-03T12:26:47.492Z,992.49
2022-11-03T12:27:52.042Z,992.49
2022-11-03T12:28:34.739Z,992.47
2022-11-03T12:51:49.545Z,992.37
2022-11-03T12:52:49.339Z,992.37
2022-11-03T12:53:49.473Z,992.36
2022-11-03T12:54:49.472Z,992.27
2022-11-03T12:55:49.585Z,992.23
2022-11-03T12:56:49.312Z,992.20
2022-11-03T12:57:49.979Z,992.16
2022-11-03T12:58:49.250Z,992.14
2022-11-03T12:59:49.383Z,992.11
2022-11-03T13:00:54.929Z,992.04
2022-11-03T13:01:50.699Z,991.99
2022-11-03T13:02:49.528Z,991.93
2022-11-03T13:03:49.492Z,991.91
2022-11-03T13:04:49.227Z,991.86
2022-11-03T13:05:49.541Z,991.86
2022-11-03T13:06:51.234Z,991.84
2022-11-03T13:07:49.435Z,991.81
2022-11-03T13:08:52.229Z,991.81
2022-11-03T13:09:50.431Z,991.75
2022-11-03T13:10:49.175Z,991.69
2022-11-03T13:11:49.400Z,991.64
2022-11-03T13:12:49.419Z,991.58
2022-11-03T13:13:49.377Z,991.57
2022-11-03T13:14:49.303Z,991.51
2022-11-03T13:15:49.132Z,991.42
2022-11-03T13:16:49.537Z,991.34
2022-11-03T13:18:12.077Z,991.30
2022-11-03T13:18:50.019Z,991.31
2022-11-03T13:19:54.362Z,991.35
2022-11-03T13:20:54.020Z,991.33
2022-11-03T13:21:49.011Z,991.33
2022-11-03T13:22:49.020Z,991.28
2022-11-03T13:23:49.136Z,991.28
2022-11-03T13:24:49.650Z,991.24
2022-11-03T13:25:49.089Z,991.16
2022-11-03T13:26:49.011Z,991.18
2022-11-03T13:27:49.097Z,991.25
2022-11-03T13:28:49.158Z,991.25
2022-11-03T13:29:49.068Z,991.17
2022-11-03T13:30:48.939Z,991.20
2022-11-03T13:31:49.211Z,991.24
2022-11-03T13:32:48.929Z,991.20
2022-11-03T13:33:48.817Z,991.19
2022-11-03T13:34:48.986Z,991.19
2022-11-03T13:35:49.040Z,991.15
2022-11-03T13:36:49.024Z,991.17
2022-11-03T13:37:48.869Z,991.13
2022-11-03T13:38:48.794Z,991.12
2022-11-03T13:39:48.808Z,991.09
2022-11-03T13:40:57.219Z,991.05
2022-11-03T13:41:49.887Z,991.09
2022-11-03T13:42:48.753Z,991.13
2022-11-03T13:43:48.739Z,991.15
2022-11-03T13:44:48.735Z,991.19
2022-11-03T13:45:48.937Z,991.19
2022-11-03T13:46:48.748Z,991.18
2022-11-03T13:48:23.162Z,991.19
2022-11-03T13:49:42.336Z,991.11
2022-11-03T13:50:13.086Z,991.14
2022-11-03T13:50:49.677Z,991.16
2022-11-03T13:51:48.583Z,991.12
2022-11-03T13:52:48.808Z,990.96
2022-11-03T13:55:50.417Z,990.81
2022-11-03T13:59:49.743Z,990.68
2022-11-03T14:00:49.322Z,990.66
2022-11-03T14:04:49.896Z,990.46
2022-11-03T14:05:48.622Z,990.53
2022-11-03T14:06:48.432Z,990.54
2022-11-03T14:07:48.513Z,990.51
2022-11-03T14:08:48.437Z,990.49
2022-11-03T14:09:48.732Z,990.51
2022-11-03T14:10:48.502Z,990.50
2022-11-03T14:11:48.504Z,990.55
2022-11-03T14:12:48.394Z,990.45
2022-11-03T14:13:48.514Z,990.39
2022-11-03T14:14:48.390Z,990.28
2022-11-03T14:15:48.328Z,990.26
2022-11-03T14:16:48.450Z,990.26
2022-11-03T14:17:48.380Z,990.30
2022-11-03T14:18:48.544Z,990.25
2022-11-03T14:19:52.427Z,990.19
2022-11-03T14:20:48.516Z,990.16
2022-11-03T14:21:49.340Z,990.15
2022-11-03T14:22:48.335Z,990.12
2022-11-03T14:23:49.277Z,990.11
2022-11-03T14:24:48.300Z,990.12
2022-11-03T14:26:00.427Z,990.12
2022-11-03T14:26:49.464Z,990.15
2022-11-03T14:27:50.856Z,990.14
2022-11-03T14:28:48.896Z,990.12
2022-11-03T14:29:48.691Z,990.11
2022-11-03T14:30:48.191Z,990.07
2022-11-03T14:31:48.299Z,990.04
2022-11-03T14:32:48.180Z,989.95
2022-11-03T14:33:48.709Z,990.00
2022-11-03T14:34:48.816Z,990.02
2022-11-03T14:35:48.192Z,989.99
2022-11-03T14:36:48.236Z,990.01
2022-11-03T14:37:48.506Z,989.99
2022-11-03T14:38:50.125Z,989.95
2022-11-03T14:39:50.289Z,989.97
2022-11-03T14:40:48.097Z,989.99
2022-11-03T14:41:48.150Z,989.93
2022-11-03T14:42:48.433Z,989.96
2022-11-03T14:43:48.257Z,989.95
2022-11-03T14:44:48.127Z,989.94
2022-11-03T14:45:48.209Z,989.93
2022-11-03T14:46:48.054Z,989.90
2022-11-03T14:47:48.063Z,989.87
2022-11-03T14:48:48.014Z,989.83
2022-11-03T14:49:48.104Z,989.83
2022-11-03T14:50:48.026Z,989.81
2022-11-03T14:51:48.302Z,989.65
2022-11-03T14:52:48.220Z,989.67
2022-11-03T14:53:47.932Z,989.65
2022-11-03T14:54:48.158Z,989.68
2022-11-03T14:55:47.973Z,989.66
2022-11-03T14:56:48.026Z,989.60
